Time;durP1;ratioP1;P1;durP2;ratioP2;P2;SDS_P1;SDS_P2;PMS_P1;PMS_P2;Temp;Humidity;BMP_temperature;BMP_pressure;BME280_temperature;BME280_humidity;BME280_pressure;Samples;Min_cycle;Max_cycle;Signal;HPM_P1;HPM_P2
2022/04/24 00:01:27;;;;;;;15.23;9.43;;;;;;;;;;5048265;28;20047;-75
2022/04/24 00:03:53;;;;;;;16.90;10.43;;;;;;;;;;5048308;28;20040;-74
2022/04/24 00:06:20;;;;;;;14.03;9.77;;;;;;;;;;5048729;28;20534;-74
2022/04/24 00:08:47;;;;;;;20.63;12.60;;;;;;;;;;5048704;28;20047;-74
2022/04/24 00:11:13;;;;;;;15.80;11.37;;;;;;;;;;5045309;28;20492;-74
2022/04/24 00:13:41;;;;;;;14.80;10.37;;;;;;;;;;5045297;28;20030;-75
2022/04/24 00:16:08;;;;;;;14.43;11.00;;;;;;;;;;5044697;28;20018;-73
2022/04/24 00:18:34;;;;;;;14.07;9.50;;;;;;;;;;5030261;28;20029;-75
2022/04/24 00:21:01;;;;;;;11.77;9.57;;;;;;;;;;5050396;28;20496;-74
2022/04/24 00:23:27;;;;;;;13.13;9.83;;;;;;;;;;5047900;28;20024;-75
2022/04/24 00:25:54;;;;;;;14.33;10.17;;;;;;;;;;5031684;28;20041;-75
2022/04/24 00:28:20;;;;;;;15.97;10.23;;;;;;;;;;5028023;28;20048;-74
2022/04/24 00:30:45;;;;;;;15.93;9.67;;;;;;;;;;5029569;28;20060;-75
2022/04/24 00:33:11;;;;;;;12.63;9.27;;;;;;;;;;5029226;28;20041;-74
2022/04/24 00:35:36;;;;;;;17.30;10.13;;;;;;;;;;5029523;28;20037;-74
2022/04/24 00:38:03;;;;;;;15.67;9.97;;;;;;;;;;5044674;28;20401;-74
2022/04/24 00:40:30;;;;;;;14.20;10.13;;;;;;;;;;5029643;28;20029;-75
2022/04/24 00:42:56;;;;;;;14.90;9.83;;;;;;;;;;5045892;28;20029;-73
2022/04/24 00:45:22;;;;;;;14.97;10.20;;;;;;;;;;5048023;28;20025;-75
2022/04/24 00:47:48;;;;;;;15.07;10.33;;;;;;;;;;5049485;28;20420;-75
2022/04/24 00:50:14;;;;;;;17.27;10.87;;;;;;;;;;5049109;28;20033;-75
2022/04/24 00:52:40;;;;;;;16.63;10.03;;;;;;;;;;5049542;28;20049;-75
2022/04/24 00:55:07;;;;;;;14.90;10.27;;;;;;;;;;5049096;28;20151;-76
2022/04/24 00:57:33;;;;;;;14.37;10.10;;;;;;;;;;5048817;28;20087;-74
2022/04/24 00:59:59;;;;;;;14.37;10.27;;;;;;;;;;5047599;28;20374;-74
2022/04/24 01:02:25;;;;;;;16.07;11.03;;;;;;;;;;5047616;28;20395;-74
2022/04/24 01:04:50;;;;;;;13.47;9.90;;;;;;;;;;5047798;28;20029;-74
2022/04/24 01:07:16;;;;;;;15.83;10.30;;;;;;;;;;5031058;28;20082;-74
2022/04/24 01:09:41;;;;;;;13.60;9.70;;;;;;;;;;5048158;28;20025;-75
2022/04/24 01:12:08;;;;;;;16.30;10.80;;;;;;;;;;5037523;28;20076;-75
2022/04/24 01:14:35;;;;;;;15.73;9.90;;;;;;;;;;5044423;28;20102;-75
2022/04/24 01:17:02;;;;;;;15.10;9.90;;;;;;;;;;5028971;28;20029;-74
2022/04/24 01:19:28;;;;;;;17.57;10.60;;;;;;;;;;5043937;28;20033;-75
2022/04/24 01:21:55;;;;;;;14.50;10.07;;;;;;;;;;5057588;28;20531;-75
2022/04/24 01:24:26;;;;;;;14.33;10.23;;;;;;;;;;5048407;28;20175;-74
2022/04/24 01:26:52;;;;;;;13.63;10.10;;;;;;;;;;5039717;28;20398;-74
2022/04/24 01:29:19;;;;;;;15.97;10.27;;;;;;;;;;5028672;28;20079;-74
2022/04/24 01:31:45;;;;;;;12.90;9.30;;;;;;;;;;5030821;28;20040;-75
2022/04/24 01:34:12;;;;;;;15.07;10.27;;;;;;;;;;5047598;28;20488;-74
2022/04/24 01:36:37;;;;;;;16.90;10.93;;;;;;;;;;5047623;28;20488;-75
2022/04/24 01:39:07;;;;;;;16.23;10.40;;;;;;;;;;5032337;28;20037;-75
2022/04/24 01:41:34;;;;;;;13.50;10.27;;;;;;;;;;5019631;28;20055;-74
2022/04/24 01:43:59;;;;;;;13.67;9.70;;;;;;;;;;5052797;28;20108;-74
2022/04/24 01:46:25;;;;;;;12.90;9.33;;;;;;;;;;5067437;28;20036;-73
2022/04/24 01:48:53;;;;;;;14.73;10.00;;;;;;;;;;5052392;28;20037;-74
2022/04/24 01:51:19;;;;;;;18.27;9.70;;;;;;;;;;5067306;28;20456;-73
2022/04/24 01:53:45;;;;;;;18.53;10.53;;;;;;;;;;5067436;28;20128;-74
2022/04/24 01:56:13;;;;;;;13.40;10.17;;;;;;;;;;5051968;28;20522;-73
2022/04/24 01:58:39;;;;;;;13.33;9.40;;;;;;;;;;5067594;28;20036;-74
2022/04/24 02:01:06;;;;;;;14.70;10.03;;;;;;;;;;5052143;28;20435;-75
2022/04/24 02:03:33;;;;;;;17.30;10.30;;;;;;;;;;5067471;28;20078;-74
2022/04/24 02:05:58;;;;;;;13.37;9.97;;;;;;;;;;5050798;28;20472;-73
2022/04/24 02:08:25;;;;;;;16.53;10.20;;;;;;;;;;5067494;28;20061;-74
2022/04/24 02:10:52;;;;;;;18.27;12.43;;;;;;;;;;5051786;28;20407;-74
2022/04/24 02:13:18;;;;;;;14.63;9.83;;;;;;;;;;5047431;28;20029;-75
2022/04/24 02:15:45;;;;;;;14.67;9.67;;;;;;;;;;5032236;28;20125;-75
2022/04/24 02:18:11;;;;;;;13.67;9.37;;;;;;;;;;5032004;28;20470;-76
2022/04/24 02:20:36;;;;;;;19.27;10.83;;;;;;;;;;5033507;28;20021;-75
2022/04/24 02:23:02;;;;;;;15.27;9.93;;;;;;;;;;5051716;28;20028;-74
2022/04/24 02:25:28;;;;;;;13.63;10.20;;;;;;;;;;5066640;28;20035;-73
2022/04/24 02:27:55;;;;;;;14.50;9.90;;;;;;;;;;5066609;28;20200;-74
2022/04/24 02:30:28;;;;;;;14.67;10.10;;;;;;;;;;5050147;28;20723;-74
2022/04/24 02:32:57;;;;;;;14.33;10.53;;;;;;;;;;5050218;28;20304;-74
2022/04/24 02:35:23;;;;;;;14.73;10.87;;;;;;;;;;5051226;28;20029;-75
2022/04/24 02:37:48;;;;;;;14.37;9.97;;;;;;;;;;5049873;28;20033;-74
2022/04/24 02:40:17;;;;;;;14.67;10.60;;;;;;;;;;5033244;28;20086;-73
2022/04/24 02:42:42;;;;;;;20.00;11.47;;;;;;;;;;5034299;28;20440;-74
2022/04/24 02:45:09;;;;;;;16.30;10.80;;;;;;;;;;5046721;28;20032;-74
2022/04/24 02:47:38;;;;;;;16.63;10.07;;;;;;;;;;5046244;28;20106;-74
2022/04/24 02:50:04;;;;;;;16.77;10.57;;;;;;;;;;5046770;28;20040;-75
2022/04/24 02:52:30;;;;;;;16.03;10.93;;;;;;;;;;5013258;28;20040;-75
2022/04/24 02:54:55;;;;;;;18.97;10.63;;;;;;;;;;5031281;28;20037;-75
2022/04/24 02:57:21;;;;;;;14.17;10.37;;;;;;;;;;5029023;28;20068;-74
2022/04/24 02:59:49;;;;;;;18.37;11.80;;;;;;;;;;5030742;28;20033;-74
2022/04/24 03:02:16;;;;;;;16.10;11.20;;;;;;;;;;5030676;28;20033;-74
2022/04/24 03:04:43;;;;;;;14.33;10.03;;;;;;;;;;5046100;28;20033;-75
2022/04/24 03:07:09;;;;;;;11.93;9.80;;;;;;;;;;5030844;28;20032;-74
2022/04/24 03:09:35;;;;;;;17.13;10.90;;;;;;;;;;5030481;28;20057;-74
2022/04/24 03:12:00;;;;;;;13.70;10.03;;;;;;;;;;5054988;28;20080;-74
2022/04/24 03:14:27;;;;;;;15.47;10.47;;;;;;;;;;5049265;28;20036;-75
2022/04/24 03:16:53;;;;;;;16.27;10.83;;;;;;;;;;5050547;28;20113;-75
2022/04/24 03:19:18;;;;;;;15.17;10.40;;;;;;;;;;5050568;28;20107;-75
2022/04/24 03:21:44;;;;;;;17.43;10.60;;;;;;;;;;5037074;28;20044;-74
2022/04/24 03:24:10;;;;;;;16.63;10.87;;;;;;;;;;5046097;28;20032;-75
2022/04/24 03:26:35;;;;;;;14.90;10.23;;;;;;;;;;5051023;28;20025;-73
2022/04/24 03:29:01;;;;;;;16.63;11.17;;;;;;;;;;5050525;28;20033;-73
2022/04/24 03:31:27;;;;;;;16.87;11.10;;;;;;;;;;5047893;28;20045;-74
2022/04/24 03:33:52;;;;;;;17.07;10.77;;;;;;;;;;5050543;28;20063;-75
2022/04/24 03:36:19;;;;;;;13.70;10.00;;;;;;;;;;5048874;28;20438;-75
2022/04/24 03:38:44;;;;;;;15.70;11.20;;;;;;;;;;5048897;28;20075;-74
2022/04/24 03:41:12;;;;;;;15.23;10.57;;;;;;;;;;5049899;28;20033;-75
2022/04/24 03:43:37;;;;;;;17.57;10.30;;;;;;;;;;5049947;28;20025;-74
2022/04/24 03:46:06;;;;;;;16.03;11.73;;;;;;;;;;5048706;28;20123;-75
2022/04/24 03:48:34;;;;;;;15.67;10.57;;;;;;;;;;5048641;28;20121;-74
2022/04/24 03:50:59;;;;;;;13.47;10.30;;;;;;;;;;5050084;28;20436;-74
2022/04/24 03:53:25;;;;;;;16.67;11.17;;;;;;;;;;5048532;28;20021;-74
2022/04/24 03:55:51;;;;;;;15.73;10.07;;;;;;;;;;5048476;28;20456;-74
2022/04/24 03:58:16;;;;;;;16.27;10.73;;;;;;;;;;5028840;28;20029;-74
2022/04/24 04:00:42;;;;;;;15.27;10.77;;;;;;;;;;5045154;28;20033;-73
2022/04/24 04:03:08;;;;;;;15.10;10.83;;;;;;;;;;5045196;28;20030;-74
2022/04/24 04:05:37;;;;;;;13.03;9.80;;;;;;;;;;5045043;28;20029;-73
2022/04/24 04:08:05;;;;;;;16.73;10.73;;;;;;;;;;5028401;28;20119;-73
2022/04/24 04:10:31;;;;;;;16.80;12.00;;;;;;;;;;5028440;28;20068;-73
2022/04/24 04:12:57;;;;;;;20.37;11.13;;;;;;;;;;5044542;28;20057;-74
2022/04/24 04:15:22;;;;;;;18.47;10.47;;;;;;;;;;5044679;28;20045;-76
2022/04/24 04:17:48;;;;;;;19.10;11.13;;;;;;;;;;5045070;28;20564;-74
2022/04/24 04:20:14;;;;;;;14.63;10.40;;;;;;;;;;5029683;28;20033;-75
2022/04/24 04:22:48;;;;;;;15.57;11.40;;;;;;;;;;5049240;28;20457;-75
2022/04/24 04:25:14;;;;;;;17.97;10.83;;;;;;;;;;5048012;28;20032;-74
2022/04/24 04:27:40;;;;;;;15.50;11.33;;;;;;;;;;5034528;28;20084;-74
2022/04/24 04:30:06;;;;;;;18.03;11.47;;;;;;;;;;5029481;28;20477;-75
2022/04/24 04:32:31;;;;;;;15.60;10.97;;;;;;;;;;5044344;28;20127;-74
2022/04/24 04:34:57;;;;;;;15.77;10.07;;;;;;;;;;5029782;28;20116;-75
2022/04/24 04:37:22;;;;;;;15.63;10.80;;;;;;;;;;5031324;28;20025;-73
2022/04/24 04:39:48;;;;;;;15.53;10.90;;;;;;;;;;5031493;28;20110;-75
2022/04/24 04:42:13;;;;;;;15.53;10.87;;;;;;;;;;5046271;28;20033;-74
2022/04/24 04:44:38;;;;;;;17.23;11.60;;;;;;;;;;5044517;28;20067;-74
2022/04/24 04:47:04;;;;;;;18.33;10.70;;;;;;;;;;5030313;28;20026;-75
2022/04/24 04:49:30;;;;;;;19.87;11.20;;;;;;;;;;5028921;28;20158;-74
2022/04/24 04:51:55;;;;;;;17.03;10.67;;;;;;;;;;5044518;28;20356;-74
2022/04/24 04:54:21;;;;;;;17.17;10.57;;;;;;;;;;5044068;28;20461;-73
2022/04/24 04:56:46;;;;;;;18.23;11.87;;;;;;;;;;5051153;28;20120;-74
2022/04/24 04:59:12;;;;;;;17.67;11.03;;;;;;;;;;5048137;28;20063;-73
2022/04/24 05:01:37;;;;;;;17.03;11.40;;;;;;;;;;5048100;28;20021;-74
2022/04/24 05:04:03;;;;;;;16.97;10.77;;;;;;;;;;5049554;28;20090;-74
2022/04/24 05:06:28;;;;;;;18.07;11.13;;;;;;;;;;5049589;28;20032;-75
2022/04/24 05:08:55;;;;;;;18.10;11.50;;;;;;;;;;5052802;28;20090;-74
2022/04/24 05:11:23;;;;;;;18.83;12.00;;;;;;;;;;5047650;28;20125;-72
2022/04/24 05:13:49;;;;;;;15.00;10.30;;;;;;;;;;5048013;28;20127;-74
2022/04/24 05:16:14;;;;;;;15.97;11.50;;;;;;;;;;5032546;28;20124;-74
2022/04/24 05:18:40;;;;;;;16.80;11.10;;;;;;;;;;5032745;28;20060;-74
2022/04/24 05:21:05;;;;;;;15.67;10.67;;;;;;;;;;5048166;28;20025;-73
2022/04/24 05:23:32;;;;;;;16.00;11.07;;;;;;;;;;5032487;28;20033;-74
2022/04/24 05:25:58;;;;;;;14.20;9.70;;;;;;;;;;5048378;28;20025;-75
2022/04/24 05:28:24;;;;;;;15.27;10.95;;;;;;;;;;5051001;28;20036;-74
2022/04/24 05:30:49;;;;;;;17.23;11.83;;;;;;;;;;5018353;28;20037;-75
2022/04/24 05:33:18;;;;;;;13.47;10.80;;;;;;;;;;5052571;28;20396;-74
2022/04/24 05:35:45;;;;;;;13.73;10.33;;;;;;;;;;5052045;28;20079;-74
2022/04/24 05:38:11;;;;;;;18.03;11.53;;;;;;;;;;5051038;28;20037;-74
2022/04/24 05:40:37;;;;;;;15.47;10.83;;;;;;;;;;5050802;28;20056;-74
2022/04/24 05:43:04;;;;;;;14.95;10.30;;;;;;;;;;5033410;28;20064;-74
2022/04/24 05:45:32;;;;;;;15.00;10.70;;;;;;;;;;5032308;28;20021;-75
2022/04/24 05:47:58;;;;;;;17.67;11.35;;;;;;;;;;5032445;28;20029;-74
2022/04/24 05:50:25;;;;;;;15.48;11.00;;;;;;;;;;5047365;28;20393;-72
2022/04/24 05:52:55;;;;;;;16.40;11.65;;;;;;;;;;5047652;28;20124;-74
2022/04/24 05:55:20;;;;;;;15.38;10.65;;;;;;;;;;5032205;28;20064;-75
2022/04/24 05:57:49;;;;;;;14.75;10.88;;;;;;;;;;5031023;28;20041;-75
2022/04/24 06:00:16;;;;;;;15.80;10.70;;;;;;;;;;5032002;28;20546;-74
2022/04/24 06:02:42;;;;;;;14.85;10.82;;;;;;;;;;5048205;28;20144;-75
2022/04/24 06:05:10;;;;;;;17.42;11.07;;;;;;;;;;5033022;28;20056;-75
2022/04/24 06:07:36;;;;;;;15.43;11.27;;;;;;;;;;5047369;28;20126;-74
2022/04/24 06:10:03;;;;;;;17.60;11.15;;;;;;;;;;5047138;28;20072;-74
2022/04/24 06:12:30;;;;;;;14.23;10.80;;;;;;;;;;5046519;28;20045;-74
2022/04/24 06:15:03;;;;;;;17.05;11.43;;;;;;;;;;5046610;28;20454;-73
2022/04/24 06:17:29;;;;;;;14.38;10.43;;;;;;;;;;5029999;28;20037;-74
2022/04/24 06:19:54;;;;;;;16.27;10.93;;;;;;;;;;5046602;28;20113;-74
2022/04/24 06:22:20;;;;;;;16.58;11.63;;;;;;;;;;5046418;28;20628;-74
2022/04/24 06:24:49;;;;;;;17.10;11.38;;;;;;;;;;5046704;28;20063;-74
2022/04/24 06:27:15;;;;;;;18.85;12.00;;;;;;;;;;5046937;28;20109;-74
2022/04/24 06:29:41;;;;;;;16.05;11.38;;;;;;;;;;5031305;28;20112;-74
2022/04/24 06:32:08;;;;;;;17.77;12.00;;;;;;;;;;5030267;28;20053;-74
2022/04/24 06:34:34;;;;;;;19.30;11.63;;;;;;;;;;5046413;28;20091;-75
2022/04/24 06:36:59;;;;;;;20.00;12.15;;;;;;;;;;5031465;28;20025;-75
2022/04/24 06:39:25;;;;;;;20.05;12.43;;;;;;;;;;5046471;28;20052;-73
2022/04/24 06:41:50;;;;;;;20.63;11.95;;;;;;;;;;5046077;28;20030;-75
2022/04/24 06:44:16;;;;;;;20.65;12.68;;;;;;;;;;5031565;28;20029;-75
2022/04/24 06:46:43;;;;;;;20.73;12.02;;;;;;;;;;5031091;28;20359;-75
2022/04/24 06:49:09;;;;;;;17.88;12.23;;;;;;;;;;5046485;28;20120;-75
2022/04/24 06:51:34;;;;;;;17.90;12.18;;;;;;;;;;5030888;28;20494;-75
2022/04/24 06:54:00;;;;;;;18.75;12.25;;;;;;;;;;5046295;28;20239;-75
2022/04/24 06:56:25;;;;;;;20.17;12.82;;;;;;;;;;5045657;28;20048;-74
2022/04/24 06:58:52;;;;;;;21.17;13.52;;;;;;;;;;5031069;28;20034;-75
2022/04/24 07:01:19;;;;;;;19.13;13.65;;;;;;;;;;5031127;28;20037;-75
2022/04/24 07:03:45;;;;;;;19.52;12.00;;;;;;;;;;5030599;28;20021;-74
2022/04/24 07:06:10;;;;;;;18.65;12.80;;;;;;;;;;5046065;28;20036;-74
2022/04/24 07:08:39;;;;;;;19.15;12.68;;;;;;;;;;5045658;28;20076;-75
2022/04/24 07:11:04;;;;;;;25.17;13.30;;;;;;;;;;5045628;28;20049;-74
2022/04/24 07:13:30;;;;;;;18.73;12.32;;;;;;;;;;5030960;28;20492;-74
2022/04/24 07:15:55;;;;;;;17.77;12.18;;;;;;;;;;5045962;28;20029;-76
2022/04/24 07:18:21;;;;;;;16.40;12.20;;;;;;;;;;5030691;28;20033;-75
2022/04/24 07:20:47;;;;;;;20.08;14.20;;;;;;;;;;5034871;28;20032;-74
2022/04/24 07:23:13;;;;;;;21.13;13.95;;;;;;;;;;5049389;28;20527;-75
2022/04/24 07:25:43;;;;;;;19.70;13.10;;;;;;;;;;5049305;28;20451;-75
2022/04/24 07:28:13;;;;;;;22.37;14.03;;;;;;;;;;5032081;28;20037;-75
2022/04/24 07:30:39;;;;;;;23.75;13.38;;;;;;;;;;5045654;28;20404;-76
2022/04/24 07:33:04;;;;;;;21.65;13.52;;;;;;;;;;5045789;28;20037;-75
2022/04/24 07:35:34;;;;;;;19.25;13.45;;;;;;;;;;5030066;28;20030;-76
2022/04/24 07:38:02;;;;;;;23.05;13.05;;;;;;;;;;5028894;28;20036;-76
2022/04/24 07:40:31;;;;;;;17.90;12.85;;;;;;;;;;5045614;28;20028;-75
2022/04/24 07:43:02;;;;;;;20.70;13.93;;;;;;;;;;5061980;28;20063;-75
2022/04/24 07:45:31;;;;;;;22.27;15.60;;;;;;;;;;5050301;28;20021;-76
2022/04/24 07:47:58;;;;;;;23.15;13.93;;;;;;;;;;5050289;28;20036;-75
2022/04/24 07:50:30;;;;;;;22.33;14.15;;;;;;;;;;5048599;28;20435;-76
2022/04/24 07:52:56;;;;;;;;;;;;;;;;;;5050758;28;20024;-75
2022/04/24 07:55:23;;;;;;;20.77;12.88;;;;;;;;;;5050847;28;20399;-76
2022/04/24 07:57:54;;;;;;;23.40;14.48;;;;;;;;;;5049404;28;20028;-74
2022/04/24 08:00:21;;;;;;;20.55;14.40;;;;;;;;;;5048799;28;20032;-74
2022/04/24 08:02:57;;;;;;;24.45;13.65;;;;;;;;;;5049867;28;20051;-75
2022/04/24 08:05:34;;;;;;;23.02;14.20;;;;;;;;;;5048290;28;20028;-75
2022/04/24 08:08:03;;;;;;;24.17;15.80;;;;;;;;;;5048036;28;20029;-75
2022/04/24 08:10:32;;;;;;;29.92;16.85;;;;;;;;;;5048308;28;20035;-77
2022/04/24 08:12:58;;;;;;;29.38;18.40;;;;;;;;;;5031349;28;20052;-75
2022/04/24 08:15:26;;;;;;;28.40;16.90;;;;;;;;;;5029523;28;20040;-75
2022/04/24 08:17:51;;;;;;;29.92;17.33;;;;;;;;;;5029436;28;20174;-76
2022/04/24 08:20:18;;;;;;;23.77;15.85;;;;;;;;;;5029710;28;20120;-76
2022/04/24 08:22:46;;;;;;;31.60;18.10;;;;;;;;;;5048036;28;20024;-75
2022/04/24 08:25:15;;;;;;;29.08;17.73;;;;;;;;;;5048314;28;20055;-76
2022/04/24 08:27:41;;;;;;;23.02;15.82;;;;;;;;;;5033783;28;20095;-76
2022/04/24 08:30:09;;;;;;;27.23;16.92;;;;;;;;;;5044837;28;20030;-76
2022/04/24 08:32:35;;;;;;;24.38;16.13;;;;;;;;;;5044576;28;20033;-75
2022/04/24 08:35:01;;;;;;;27.80;16.85;;;;;;;;;;5044658;28;20025;-75
2022/04/24 08:37:27;;;;;;;45.85;18.80;;;;;;;;;;5044492;28;20045;-74
2022/04/24 08:39:53;;;;;;;24.27;16.60;;;;;;;;;;5011101;28;20041;-74
2022/04/24 08:42:21;;;;;;;26.85;16.70;;;;;;;;;;5027638;28;20049;-75
2022/04/24 08:44:49;;;;;;;24.60;16.48;;;;;;;;;;5012293;28;20033;-76
2022/04/24 08:47:19;;;;;;;23.98;16.13;;;;;;;;;;5032906;28;20029;-75
2022/04/24 08:49:46;;;;;;;25.88;17.52;;;;;;;;;;5029396;28;20130;-77
2022/04/24 08:52:13;;;;;;;26.05;17.23;;;;;;;;;;5029542;28;20022;-77
2022/04/24 08:54:41;;;;;;;29.58;16.55;;;;;;;;;;5027577;28;20029;-76
2022/04/24 08:57:10;;;;;;;24.42;15.48;;;;;;;;;;5028759;28;20056;-76
2022/04/24 08:59:37;;;;;;;27.38;16.15;;;;;;;;;;5044256;28;20059;-76
2022/04/24 09:02:04;;;;;;;27.52;17.42;;;;;;;;;;5044259;28;20032;-76
2022/04/24 09:04:33;;;;;;;29.25;17.55;;;;;;;;;;5044434;28;20032;-77
2022/04/24 09:07:04;;;;;;;30.48;20.67;;;;;;;;;;5044862;28;20048;-76
2022/04/24 09:09:38;;;;;;;29.90;16.98;;;;;;;;;;5044927;28;20385;-76
2022/04/24 09:12:08;;;;;;;24.45;16.08;;;;;;;;;;5028818;28;20085;-76
2022/04/24 09:14:34;;;;;;;25.48;16.20;;;;;;;;;;5028952;28;20512;-75
2022/04/24 09:17:04;;;;;;;24.73;16.33;;;;;;;;;;5043983;28;20056;-76
2022/04/24 09:19:30;;;;;;;27.08;18.63;;;;;;;;;;5044201;28;20112;-76
2022/04/24 09:22:06;;;;;;;29.23;16.73;;;;;;;;;;5057712;28;20127;-75
2022/04/24 09:24:49;;;;;;;26.30;15.88;;;;;;;;;;5047087;28;20025;-75
2022/04/24 09:27:25;;;;;;;22.77;17.38;;;;;;;;;;5036366;28;20385;-75
2022/04/24 09:30:12;;;;;;;24.58;15.98;;;;;;;;;;5044270;28;20036;-75
2022/04/24 09:32:48;;;;;;;24.23;15.25;;;;;;;;;;5046560;28;20297;-76
2022/04/24 09:35:30;;;;;;;25.83;16.58;;;;;;;;;;5040659;28;20083;-75
2022/04/24 09:38:09;;;;;;;24.20;16.05;;;;;;;;;;5056246;28;20159;-75
2022/04/24 09:40:45;;;;;;;25.75;15.90;;;;;;;;;;5050516;28;20448;-74
2022/04/24 09:43:12;;;;;;;25.58;16.52;;;;;;;;;;5047110;28;20029;-76
2022/04/24 09:45:49;;;;;;;32.28;18.52;;;;;;;;;;5047896;28;20518;-75
2022/04/24 09:48:16;;;;;;;28.08;16.60;;;;;;;;;;5048777;28;20024;-76
2022/04/24 09:50:44;;;;;;;33.85;17.80;;;;;;;;;;5047215;28;20044;-76
2022/04/24 09:53:15;;;;;;;32.03;17.55;;;;;;;;;;5050278;28;20036;-75
2022/04/24 09:55:44;;;;;;;29.98;18.95;;;;;;;;;;5050999;28;20041;-74
2022/04/24 09:58:13;;;;;;;31.33;18.17;;;;;;;;;;5033692;28;20481;-76
2022/04/24 10:00:39;;;;;;;29.13;16.98;;;;;;;;;;5047488;28;20402;-76
2022/04/24 10:03:04;;;;;;;33.25;19.08;;;;;;;;;;5032381;28;20033;-77
2022/04/24 10:05:33;;;;;;;34.55;20.10;;;;;;;;;;5047497;28;20026;-77
2022/04/24 10:08:01;;;;;;;32.38;20.10;;;;;;;;;;5047647;28;20026;-75
2022/04/24 10:10:27;;;;;;;33.22;18.67;;;;;;;;;;5048132;28;20032;-76
2022/04/24 10:12:54;;;;;;;31.52;19.20;;;;;;;;;;5062890;28;20093;-76
2022/04/24 10:15:23;;;;;;;31.98;20.80;;;;;;;;;;5050583;28;20035;-76
2022/04/24 10:18:03;;;;;;;33.65;20.13;;;;;;;;;;5051601;28;20021;-77
2022/04/24 10:20:44;;;;;;;32.35;17.88;;;;;;;;;;5048940;28;20037;-76
2022/04/24 10:23:11;;;;;;;30.30;20.05;;;;;;;;;;5059029;28;20033;-75
2022/04/24 10:25:40;;;;;;;35.20;21.08;;;;;;;;;;5032577;28;20025;-75
2022/04/24 10:28:17;;;;;;;31.77;20.23;;;;;;;;;;5047747;28;20078;-77
2022/04/24 10:30:47;;;;;;;33.85;20.65;;;;;;;;;;5051520;28;20441;-76
2022/04/24 10:33:20;;;;;;;30.00;18.23;;;;;;;;;;5052230;28;20035;-77
2022/04/24 10:35:51;;;;;;;32.40;20.33;;;;;;;;;;5050057;28;20029;-76
2022/04/24 10:38:18;;;;;;;29.43;19.43;;;;;;;;;;5051652;28;20064;-76
2022/04/24 10:41:06;;;;;;;24.33;16.58;;;;;;;;;;5051930;28;20021;-76
2022/04/24 10:43:51;;;;;;;29.77;17.52;;;;;;;;;;5051608;28;20075;-77
2022/04/24 10:46:23;;;;;;;25.40;15.77;;;;;;;;;;5050461;28;20029;-76
2022/04/24 10:48:49;;;;;;;29.15;17.58;;;;;;;;;;5051287;28;20052;-76
2022/04/24 10:51:31;;;;;;;27.70;16.52;;;;;;;;;;5033822;28;20100;-76
2022/04/24 10:53:59;;;;;;;25.95;17.20;;;;;;;;;;5012676;28;20481;-77
2022/04/24 10:56:26;;;;;;;23.05;16.50;;;;;;;;;;5046082;28;20025;-76
2022/04/24 10:58:52;;;;;;;19.38;13.40;;;;;;;;;;5031018;28;20539;-77
2022/04/24 11:01:18;;;;;;;23.30;15.27;;;;;;;;;;5031449;28;20025;-77
2022/04/24 11:03:45;;;;;;;29.23;16.75;;;;;;;;;;5029056;28;20069;-76
2022/04/24 11:06:19;;;;;;;26.80;15.73;;;;;;;;;;5029679;28;20052;-75
2022/04/24 11:08:45;;;;;;;26.60;16.42;;;;;;;;;;5046132;28;20029;-78
2022/04/24 11:11:14;;;;;;;30.05;18.33;;;;;;;;;;5030841;28;20073;-76
2022/04/24 11:13:40;;;;;;;25.98;17.63;;;;;;;;;;5046471;28;20049;-76
2022/04/24 11:16:09;;;;;;;26.55;17.92;;;;;;;;;;5030817;28;20040;-77
2022/04/24 11:18:36;;;;;;;25.88;17.40;;;;;;;;;;5030389;28;20067;-76
2022/04/24 11:21:05;;;;;;;28.48;18.10;;;;;;;;;;5028901;28;20448;-75
2022/04/24 11:23:36;;;;;;;26.38;17.75;;;;;;;;;;5031077;28;20207;-77
2022/04/24 11:26:05;;;;;;;28.00;19.02;;;;;;;;;;5031074;28;20029;-77
2022/04/24 11:28:44;;;;;;;29.35;17.70;;;;;;;;;;5051351;28;20032;-76
2022/04/24 11:31:16;;;;;;;30.73;18.58;;;;;;;;;;5056121;28;20025;-74
2022/04/24 11:33:54;;;;;;;29.30;18.85;;;;;;;;;;5045223;28;20033;-77
2022/04/24 11:36:21;;;;;;;34.65;17.65;;;;;;;;;;5050126;28;20024;-77
2022/04/24 11:39:12;;;;;;;29.77;18.52;;;;;;;;;;5048800;28;20025;-78
2022/04/24 11:41:43;;;;;;;30.30;20.47;;;;;;;;;;5049135;28;20116;-78
2022/04/24 11:52:39;;;;;;;29.95;18.85;;;;;;;;;;5050331;28;20059;-75
2022/04/24 11:55:07;;;;;;;31.27;19.73;;;;;;;;;;5049774;28;20075;-76
2022/04/24 11:57:33;;;;;;;28.20;18.77;;;;;;;;;;5036648;28;20029;-75
2022/04/24 11:59:59;;;;;;;30.50;21.05;;;;;;;;;;5028874;28;20125;-76
2022/04/24 12:02:27;;;;;;;29.10;19.35;;;;;;;;;;5045289;28;20104;-76
2022/04/24 12:04:53;;;;;;;32.67;19.47;;;;;;;;;;5044928;28;20076;-76
2022/04/24 12:07:19;;;;;;;30.27;19.40;;;;;;;;;;5044773;28;20389;-76
2022/04/24 12:09:55;;;;;;;33.43;19.97;;;;;;;;;;5029816;28;20029;-76
2022/04/24 12:12:21;;;;;;;32.50;19.23;;;;;;;;;;5028011;28;20072;-75
2022/04/24 12:14:53;;;;;;;30.75;20.13;;;;;;;;;;5044471;28;20457;-76
2022/04/24 12:17:21;;;;;;;37.03;21.33;;;;;;;;;;5045000;28;20021;-76
2022/04/24 12:19:51;;;;;;;31.27;20.90;;;;;;;;;;5028675;28;20029;-76
2022/04/24 12:22:25;;;;;;;34.00;20.33;;;;;;;;;;5044795;28;20112;-76
2022/04/24 12:24:52;;;;;;;32.80;20.67;;;;;;;;;;5029737;28;20021;-75
2022/04/24 12:27:18;;;;;;;29.07;17.73;;;;;;;;;;5055824;28;20048;-76
2022/04/24 12:29:48;;;;;;;30.70;18.00;;;;;;;;;;5050117;28;20063;-76
2022/04/24 12:32:18;;;;;;;25.60;16.07;;;;;;;;;;5031780;28;20143;-76
2022/04/24 12:34:45;;;;;;;30.90;19.80;;;;;;;;;;5031505;28;20124;-76
2022/04/24 12:37:15;;;;;;;28.03;17.57;;;;;;;;;;5048233;28;20032;-76
2022/04/24 12:39:50;;;;;;;28.00;16.77;;;;;;;;;;5032613;28;20203;-77
2022/04/24 12:42:17;;;;;;;21.13;15.07;;;;;;;;;;5037085;28;20055;-76
2022/04/24 12:44:44;;;;;;;24.60;15.75;;;;;;;;;;5044887;28;20135;-76
2022/04/24 12:47:11;;;;;;;25.45;16.60;;;;;;;;;;5044565;28;20026;-76
2022/04/24 12:49:37;;;;;;;23.50;14.40;;;;;;;;;;5044332;28;20048;-77
2022/04/24 12:52:03;;;;;;;22.75;13.95;;;;;;;;;;5029365;28;20017;-76
2022/04/24 12:54:29;;;;;;;26.33;15.23;;;;;;;;;;5045430;28;20468;-76
2022/04/24 12:56:55;;;;;;;20.40;13.55;;;;;;;;;;5027243;28;20022;-75
2022/04/24 12:59:21;;;;;;;22.55;13.73;;;;;;;;;;5029117;28;20063;-77
2022/04/24 13:01:46;;;;;;;22.30;13.85;;;;;;;;;;5028791;28;20029;-75
2022/04/24 13:04:14;;;;;;;18.13;12.75;;;;;;;;;;5044551;28;20030;-75
2022/04/24 13:06:41;;;;;;;18.42;12.68;;;;;;;;;;5029353;28;20083;-76
2022/04/24 13:09:08;;;;;;;18.42;12.07;;;;;;;;;;5011283;28;20079;-76
2022/04/24 13:11:34;;;;;;;13.70;10.90;;;;;;;;;;5048681;28;20045;-75
2022/04/24 13:14:02;;;;;;;13.38;9.98;;;;;;;;;;5047700;28;20037;-76
2022/04/24 13:19:12;;;;;;;17.13;11.30;;;;;;;;;;5048976;28;20032;-75
2022/04/24 13:21:39;;;;;;;15.15;10.52;;;;;;;;;;5036484;28;20041;-75
2022/04/24 13:24:08;;;;;;;16.05;11.52;;;;;;;;;;5027876;28;20117;-76
2022/04/24 13:26:38;;;;;;;18.02;11.25;;;;;;;;;;5028955;28;20064;-75
2022/04/24 13:29:04;;;;;;;16.73;11.43;;;;;;;;;;5048022;28;20564;-75
2022/04/24 13:31:29;;;;;;;16.65;12.70;;;;;;;;;;5032976;28;20445;-75
2022/04/24 13:33:55;;;;;;;16.85;11.63;;;;;;;;;;5032638;28;20048;-75
2022/04/24 13:36:21;;;;;;;17.90;12.80;;;;;;;;;;5048020;28;20033;-75
2022/04/24 13:38:48;;;;;;;15.63;11.23;;;;;;;;;;5033202;28;20025;-76
2022/04/24 13:41:14;;;;;;;15.13;11.25;;;;;;;;;;5047559;28;20033;-75
2022/04/24 13:43:40;;;;;;;17.48;11.30;;;;;;;;;;5047949;28;20033;-76
2022/04/24 13:46:06;;;;;;;14.98;11.38;;;;;;;;;;5032702;28;20021;-76
2022/04/24 13:48:33;;;;;;;13.32;10.98;;;;;;;;;;5030725;28;20241;-75
2022/04/24 13:50:59;;;;;;;15.07;11.20;;;;;;;;;;5014187;28;20088;-76
2022/04/24 13:53:30;;;;;;;16.92;12.50;;;;;;;;;;5031870;28;20102;-76
2022/04/24 13:55:57;;;;;;;15.50;11.10;;;;;;;;;;5031740;28;20470;-76
2022/04/24 13:58:24;;;;;;;15.57;11.02;;;;;;;;;;5032003;28;20105;-77
2022/04/24 14:00:53;;;;;;;16.40;11.52;;;;;;;;;;5031857;28;20029;-75
2022/04/24 14:03:19;;;;;;;18.15;11.45;;;;;;;;;;5031925;28;20060;-76
2022/04/24 14:05:45;;;;;;;13.68;11.85;;;;;;;;;;5047354;28;20030;-76
2022/04/24 14:08:15;;;;;;;14.68;10.35;;;;;;;;;;5030612;28;20036;-77
2022/04/24 14:10:43;;;;;;;14.55;10.48;;;;;;;;;;5031940;28;20082;-78
2022/04/24 14:13:09;;;;;;;14.70;9.98;;;;;;;;;;5047287;28;20033;-75
2022/04/24 14:15:35;;;;;;;11.40;9.20;;;;;;;;;;5033276;28;20402;-76
2022/04/24 14:18:01;;;;;;;16.13;10.02;;;;;;;;;;5031865;28;20029;-76
2022/04/24 14:20:27;;;;;;;11.63;9.65;;;;;;;;;;5048809;28;20466;-75
2022/04/24 14:22:53;;;;;;;13.35;10.15;;;;;;;;;;5050023;28;20036;-76
2022/04/24 14:25:20;;;;;;;14.32;9.98;;;;;;;;;;5051894;28;20028;-76
2022/04/24 14:27:46;;;;;;;13.70;9.35;;;;;;;;;;5035390;28;20045;-75
2022/04/24 14:30:12;;;;;;;13.95;9.57;;;;;;;;;;5030415;28;20037;-75
2022/04/24 14:32:41;;;;;;;11.77;9.52;;;;;;;;;;5052876;28;20425;-75